createdAt,value
2022-10-31T00:01:48.144Z,101127.75
2022-10-31T00:04:17.711Z,101127.69
2022-10-31T00:06:49.810Z,101126.75
2022-10-31T00:09:19.325Z,101127.59
2022-10-31T00:11:48.897Z,101123.22
2022-10-31T00:14:18.408Z,101120.66
2022-10-31T00:16:47.970Z,101125.09
2022-10-31T00:19:17.521Z,101120.66
2022-10-31T00:21:49.632Z,101125.09
2022-10-31T00:24:19.336Z,101117.06
2022-10-31T00:26:48.845Z,101126.03
2022-10-31T00:29:18.518Z,101116.22
2022-10-31T00:31:48.057Z,101114.41
2022-10-31T00:34:17.587Z,101116.22
2022-10-31T00:36:49.773Z,101122.53
2022-10-31T00:39:19.307Z,101116.28
2022-10-31T00:41:49.718Z,101113.78
2022-10-31T00:44:19.340Z,101117.72
2022-10-31T00:46:49.853Z,101111.66
2022-10-31T00:49:24.324Z,101122.09
2022-10-31T00:51:56.509Z,101126.63
2022-10-31T00:54:26.200Z,101135.34
2022-10-31T00:56:55.816Z,101123.81
2022-10-31T00:59:26.443Z,101132.56
2022-10-31T01:01:56.166Z,101136.00
2022-10-31T01:04:26.046Z,101140.44
2022-10-31T01:06:58.178Z,101143.00
2022-10-31T01:09:27.953Z,101121.72
2022-10-31T01:11:57.537Z,101118.50
2022-10-31T01:14:27.794Z,101129.19
2022-10-31T01:17:00.453Z,101123.97
2022-10-31T01:19:29.993Z,101130.19
2022-10-31T01:22:03.145Z,101136.38
2022-10-31T01:24:32.954Z,101148.84
2022-10-31T01:27:05.239Z,101146.19
2022-10-31T01:29:37.069Z,101139.22
2022-10-31T01:32:07.111Z,101148.03
2022-10-31T01:34:36.964Z,101145.25
2022-10-31T01:37:09.156Z,101151.56
2022-10-31T01:39:38.712Z,101151.50
2022-10-31T01:42:08.470Z,101150.69
2022-10-31T01:45:10.743Z,101138.06
2022-10-31T01:47:45.376Z,101141.59
2022-10-31T01:50:18.972Z,101127.84
2022-10-31T01:52:52.228Z,101112.84
2022-10-31T01:55:26.470Z,101115.56
2022-10-31T01:58:02.549Z,101119.31
2022-10-31T02:00:32.339Z,101114.88
2022-10-31T02:03:02.548Z,101120.53
2022-10-31T02:05:33.652Z,101107.91
2022-10-31T02:08:09.298Z,101099.94
2022-10-31T02:10:40.416Z,101105.25
2022-10-31T02:13:13.166Z,101100.88
2022-10-31T02:15:49.616Z,101097.63
2022-10-31T02:18:19.314Z,101088.72
2022-10-31T02:20:55.653Z,101093.09
2022-10-31T02:24:00.440Z,101099.34
2022-10-31T02:26:53.681Z,101097.81
2022-10-31T02:29:50.697Z,101093.66
2022-10-31T02:32:26.360Z,101092.88
2022-10-31T02:35:01.241Z,101095.63
2022-10-31T02:37:36.182Z,101096.69
2022-10-31T02:40:11.521Z,101101.38
2022-10-31T02:43:10.880Z,101106.09
2022-10-31T02:45:47.949Z,101098.22
2022-10-31T02:48:23.621Z,101106.25
2022-10-31T02:50:57.946Z,101109.94
2022-10-31T02:53:27.841Z,101113.38
2022-10-31T02:56:05.717Z,101113.44
2022-10-31T02:58:38.644Z,101117.75
2022-10-31T03:01:24.428Z,101124.72
2022-10-31T03:04:09.890Z,101132.03
2022-10-31T03:06:45.383Z,101126.81
2022-10-31T03:09:22.923Z,101133.78
2022-10-31T03:12:00.194Z,101128.13
2022-10-31T03:14:37.726Z,101116.84
2022-10-31T03:17:09.663Z,101115.09
2022-10-31T03:19:44.501Z,101107.94
2022-10-31T03:22:21.189Z,101122.13
2022-10-31T03:24:51.632Z,101120.25
2022-10-31T03:27:25.224Z,101127.00
2022-10-31T03:29:58.487Z,101124.19
2022-10-31T03:32:30.959Z,101131.00
2022-10-31T03:35:05.540Z,101119.38
2022-10-31T03:37:37.299Z,101124.97
2022-10-31T03:40:09.658Z,101116.75
2022-10-31T03:42:44.035Z,101122.69
2022-10-31T03:45:16.765Z,101112.94
2022-10-31T03:47:47.388Z,101102.47
2022-10-31T03:50:22.639Z,101102.63
2022-10-31T03:52:58.737Z,101096.63
2022-10-31T03:55:32.338Z,101099.41
2022-10-31T03:58:04.653Z,101095.13
2022-10-31T04:00:36.379Z,101095.41
2022-10-31T04:03:10.371Z,101101.63
2022-10-31T04:05:44.842Z,101101.78
2022-10-31T04:08:18.875Z,101102.91
2022-10-31T04:10:52.150Z,101116.16
2022-10-31T04:13:25.232Z,101105.63
2022-10-31T04:16:02.885Z,101106.75
2022-10-31T04:18:32.503Z,101106.84
2022-10-31T04:21:09.820Z,101107.00
2022-10-31T04:23:39.941Z,101109.06
2022-10-31T04:26:20.313Z,101102.03
2022-10-31T04:28:49.981Z,101100.28
2022-10-31T04:31:19.830Z,101105.81
2022-10-31T04:33:51.582Z,101107.09
2022-10-31T04:36:24.990Z,101103.59
2022-10-31T04:38:56.728Z,101107.28
2022-10-31T04:41:43.087Z,101106.44
2022-10-31T04:44:18.836Z,101102.16
2022-10-31T04:46:52.530Z,101102.00
2022-10-31T04:49:22.125Z,101092.50
2022-10-31T04:51:54.379Z,101087.97
2022-10-31T04:54:24.045Z,101086.81
2022-10-31T04:57:11.906Z,101088.59
2022-10-31T04:59:41.753Z,101093.19
2022-10-31T05:02:12.024Z,101092.50
2022-10-31T05:04:53.662Z,101083.72
2022-10-31T05:07:26.662Z,101084.56
2022-10-31T05:09:56.457Z,101088.16
2022-10-31T05:12:26.549Z,101082.25
2022-10-31T05:15:05.458Z,101088.56
2022-10-31T05:18:04.728Z,101091.53
2022-10-31T05:20:54.359Z,101088.09
2022-10-31T05:23:44.443Z,101076.69
2022-10-31T05:26:17.963Z,101069.69
2022-10-31T05:28:48.201Z,101067.91
2022-10-31T05:31:18.642Z,101070.69
2022-10-31T05:33:48.297Z,101068.91
2022-10-31T05:36:18.147Z,101068.13
2022-10-31T05:39:03.504Z,101067.38
2022-10-31T05:41:44.521Z,101071.22
2022-10-31T05:44:24.048Z,101072.16
2022-10-31T05:47:04.294Z,101072.22
2022-10-31T05:49:56.855Z,101071.22
2022-10-31T05:52:39.190Z,101061.53
2022-10-31T05:55:24.300Z,101067.72
2022-10-31T05:58:11.431Z,101066.00
2022-10-31T06:00:43.172Z,101063.50
2022-10-31T06:03:14.160Z,101061.72
2022-10-31T06:05:56.165Z,101058.13
2022-10-31T06:08:29.418Z,101062.63
2022-10-31T06:11:03.716Z,101064.53
2022-10-31T06:13:51.982Z,101056.56
2022-10-31T06:16:26.866Z,101056.69
2022-10-31T06:18:59.710Z,101055.03
2022-10-31T06:21:29.625Z,101057.75
2022-10-31T06:23:59.941Z,101061.31
2022-10-31T06:26:50.522Z,101060.50
2022-10-31T06:29:20.341Z,101060.56
2022-10-31T06:32:12.374Z,101072.00
2022-10-31T06:34:49.059Z,101062.44
2022-10-31T06:37:19.199Z,101057.22
2022-10-31T06:39:51.930Z,101063.44
2022-10-31T06:42:24.361Z,101062.69
2022-10-31T06:44:54.158Z,101064.47
2022-10-31T06:48:03.847Z,101068.03
2022-10-31T06:50:37.426Z,101066.09
2022-10-31T06:53:07.203Z,101068.81
2022-10-31T06:55:37.120Z,101066.09
2022-10-31T06:58:10.201Z,101066.94
2022-10-31T07:00:41.310Z,101071.41
2022-10-31T07:03:14.447Z,101075.75
2022-10-31T07:05:44.262Z,101082.59
2022-10-31T07:08:15.649Z,101079.16
2022-10-31T07:10:46.402Z,101086.22
2022-10-31T07:13:18.757Z,101083.69
2022-10-31T07:15:55.115Z,101086.28
2022-10-31T07:18:25.568Z,101074.78
2022-10-31T07:20:55.925Z,101071.06
2022-10-31T07:23:25.837Z,101076.28
2022-10-31T07:26:15.759Z,101078.03
2022-10-31T07:28:52.243Z,101081.25
2022-10-31T07:31:25.518Z,101087.56
2022-10-31T07:33:57.373Z,101090.19
2022-10-31T07:36:29.564Z,101092.75
2022-10-31T07:39:05.093Z,101099.66
2022-10-31T07:41:37.602Z,101088.34
2022-10-31T07:44:10.173Z,101092.59
2022-10-31T07:46:58.374Z,101078.44
2022-10-31T07:49:46.556Z,101082.78
2022-10-31T07:52:34.794Z,101075.66
2022-10-31T07:55:31.283Z,101085.19
2022-10-31T07:58:03.064Z,101083.59
2022-10-31T08:00:38.010Z,101084.50
2022-10-31T08:03:09.276Z,101084.19
2022-10-31T08:06:00.197Z,101085.88
2022-10-31T08:08:49.733Z,101084.00
2022-10-31T08:11:20.609Z,101092.72
2022-10-31T08:13:50.797Z,101098.88
2022-10-31T08:16:23.975Z,101097.00
2022-10-31T08:19:00.524Z,101096.69
2022-10-31T08:21:32.024Z,101095.56
2022-10-31T08:24:02.018Z,101096.16
2022-10-31T08:26:32.406Z,101097.72
2022-10-31T08:29:02.187Z,101091.47
2022-10-31T08:31:42.602Z,101088.59
2022-10-31T08:34:31.174Z,101080.47
2022-10-31T08:37:20.934Z,101083.69
2022-10-31T08:39:55.021Z,101081.75
2022-10-31T08:42:25.194Z,101078.06
2022-10-31T08:44:55.475Z,101074.47
2022-10-31T08:47:28.856Z,101068.00
2022-10-31T08:49:59.349Z,101073.03
2022-10-31T08:52:58.905Z,101080.72
2022-10-31T08:55:19.251Z,101066.94
2022-10-31T08:58:07.165Z,101063.25
2022-10-31T09:00:46.603Z,101059.63
2022-10-31T09:03:25.888Z,101060.38
2022-10-31T09:05:59.239Z,101058.19
2022-10-31T09:08:32.791Z,101056.94
2022-10-31T09:11:04.517Z,101051.91
2022-10-31T09:13:52.523Z,101051.84
2022-10-31T09:16:40.825Z,101048.03
2022-10-31T09:19:19.968Z,101035.56
2022-10-31T09:21:50.913Z,101032.59
2022-10-31T09:24:20.716Z,101035.03
2022-10-31T09:26:50.318Z,101032.13
2022-10-31T09:29:29.796Z,101025.69
2022-10-31T09:32:02.419Z,101031.53
2022-10-31T09:34:36.000Z,101026.69
2022-10-31T09:37:10.343Z,101037.38
2022-10-31T09:39:40.379Z,101025.66
2022-10-31T09:42:31.305Z,101024.31
2022-10-31T09:45:09.537Z,101016.81
2022-10-31T09:47:47.909Z,101003.53
2022-10-31T09:50:44.988Z,101010.25
2022-10-31T09:53:37.984Z,101006.03
2022-10-31T09:56:10.569Z,101000.56
2022-10-31T09:58:45.759Z,101000.16
2022-10-31T10:01:25.839Z,100999.97
2022-10-31T10:03:58.972Z,100993.06
2022-10-31T10:06:53.628Z,100991.69
2022-10-31T10:09:55.571Z,100993.75
2022-10-31T10:12:52.809Z,100990.50
2022-10-31T10:15:43.023Z,100981.16
2022-10-31T10:18:21.926Z,100980.53
2022-10-31T10:21:02.460Z,100984.53
2022-10-31T10:23:53.055Z,100982.66
2022-10-31T10:26:24.032Z,100979.63
2022-10-31T10:28:58.133Z,100987.88
2022-10-31T10:31:31.342Z,100970.16
2022-10-31T10:34:06.628Z,100969.72
2022-10-31T10:36:39.946Z,100960.91
2022-10-31T10:39:15.588Z,100955.78
2022-10-31T10:42:08.682Z,100953.59
2022-10-31T10:44:52.566Z,100946.22
2022-10-31T10:47:35.468Z,100938.72
2022-10-31T10:50:07.369Z,100941.16
2022-10-31T10:52:50.243Z,100932.91
2022-10-31T10:55:30.533Z,100921.78
2022-10-31T10:58:02.916Z,100925.78
2022-10-31T11:00:35.140Z,100917.56
2022-10-31T11:03:06.020Z,100915.56
2022-10-31T11:05:39.946Z,100910.53
2022-10-31T11:08:10.204Z,100897.66
2022-10-31T11:10:42.494Z,100894.34
2022-10-31T11:13:25.583Z,100890.50
2022-10-31T11:15:59.793Z,100880.66
2022-10-31T11:18:30.801Z,100879.50
2022-10-31T11:21:02.013Z,100858.09
2022-10-31T11:23:32.507Z,100863.34
2022-10-31T11:26:06.044Z,100864.09
2022-10-31T11:28:37.084Z,100857.50
2022-10-31T11:31:11.782Z,100877.34
2022-10-31T11:33:43.240Z,100869.16
2022-10-31T11:36:20.653Z,100861.78
2022-10-31T11:38:50.583Z,100857.75
2022-10-31T11:41:27.582Z,100849.47
2022-10-31T11:43:59.393Z,100840.00
2022-10-31T11:46:34.623Z,100835.63
2022-10-31T11:49:04.547Z,100830.31
2022-10-31T11:51:35.966Z,100830.94
2022-10-31T11:54:06.982Z,100836.06
2022-10-31T11:56:45.612Z,100833.53
2022-10-31T11:59:29.086Z,100831.72
2022-10-31T12:02:00.567Z,100833.97
2022-10-31T12:04:37.368Z,100817.75
2022-10-31T12:07:06.939Z,100816.59
2022-10-31T12:09:39.077Z,100813.28
2022-10-31T12:12:38.575Z,100797.59
2022-10-31T12:15:19.394Z,100796.41
2022-10-31T12:17:53.299Z,100797.06
2022-10-31T12:20:28.135Z,100788.53
2022-10-31T12:23:07.558Z,100782.84
2022-10-31T12:25:43.314Z,100773.97
2022-10-31T12:28:43.004Z,100770.88
2022-10-31T12:31:25.735Z,100764.63
2022-10-31T12:34:02.449Z,100767.72
2022-10-31T12:36:40.046Z,100760.22
2022-10-31T12:39:28.401Z,100746.81
2022-10-31T12:42:05.321Z,100747.84
2022-10-31T12:44:50.499Z,100741.94
2022-10-31T12:47:34.865Z,100731.44
2022-10-31T12:50:16.005Z,100731.56
2022-10-31T12:52:55.417Z,100714.69
2022-10-31T12:55:43.816Z,100713.66
2022-10-31T12:58:17.799Z,100696.13
2022-10-31T13:00:54.266Z,100695.44
2022-10-31T13:03:30.535Z,100695.91
2022-10-31T13:06:03.049Z,100699.06
2022-10-31T13:08:38.343Z,100691.16
2022-10-31T13:11:11.883Z,100691.66
2022-10-31T13:13:45.391Z,100690.09
2022-10-31T13:20:09.457Z,100667.13
2022-10-31T13:22:40.377Z,100668.97
2022-10-31T13:25:15.761Z,100659.50
2022-10-31T13:27:50.086Z,100645.63
2022-10-31T13:30:21.926Z,100647.19
2022-10-31T13:32:55.445Z,100646.56
2022-10-31T13:35:31.766Z,100636.00
2022-10-31T13:38:09.543Z,100624.06
2022-10-31T13:40:45.572Z,100614.50
2022-10-31T13:43:22.337Z,100603.78
2022-10-31T13:45:53.453Z,100603.91
2022-10-31T13:48:37.807Z,100606.81
2022-10-31T13:51:11.596Z,100607.28
2022-10-31T13:53:43.653Z,100600.63
2022-10-31T13:56:24.600Z,100600.25
2022-10-31T13:59:23.245Z,100593.41
2022-10-31T14:01:55.908Z,100588.91
2022-10-31T14:04:27.552Z,100594.75
2022-10-31T14:07:09.983Z,100594.53
2022-10-31T14:09:41.612Z,100590.16
2022-10-31T14:12:13.318Z,100563.75
2022-10-31T14:14:51.193Z,100561.91
2022-10-31T14:17:26.304Z,100558.97
2022-10-31T14:20:28.111Z,100559.44
2022-10-31T14:25:50.030Z,100554.09
2022-10-31T14:28:24.318Z,100547.91
2022-10-31T14:30:57.936Z,100545.97
2022-10-31T14:33:29.937Z,100545.38
2022-10-31T14:36:04.404Z,100533.41
2022-10-31T14:38:45.456Z,100529.19
2022-10-31T14:41:37.147Z,100518.03
2022-10-31T14:44:24.545Z,100522.78
2022-10-31T14:46:58.373Z,100527.00
2022-10-31T14:49:40.773Z,100523.03
2022-10-31T14:52:11.485Z,100513.53
2022-10-31T14:54:46.381Z,100510.94
2022-10-31T14:57:20.637Z,100498.56
2022-10-31T14:59:52.200Z,100499.31
2022-10-31T15:02:24.467Z,100489.53
2022-10-31T15:04:55.437Z,100491.97
2022-10-31T15:07:27.820Z,100494.44
2022-10-31T15:10:04.276Z,100487.66
2022-10-31T15:12:35.428Z,100489.72
2022-10-31T15:15:16.173Z,100479.03
2022-10-31T15:17:50.059Z,100472.97
2022-10-31T15:20:22.387Z,100480.25
2022-10-31T15:22:52.079Z,100470.91
2022-10-31T15:25:26.481Z,100462.75
2022-10-31T15:27:56.704Z,100461.06
2022-10-31T15:30:28.255Z,100450.75
2022-10-31T15:32:59.186Z,100454.66
2022-10-31T15:35:30.800Z,100442.88
2022-10-31T15:38:02.767Z,100450.00
2022-10-31T15:40:35.276Z,100440.44
2022-10-31T15:43:06.334Z,100430.84
2022-10-31T15:45:35.893Z,100432.66
2022-10-31T15:48:07.934Z,100430.50
2022-10-31T15:50:41.257Z,100420.53
2022-10-31T15:53:20.496Z,100423.81
2022-10-31T15:55:55.519Z,100434.06
2022-10-31T15:58:25.469Z,100433.94
2022-10-31T16:01:02.609Z,100424.13
2022-10-31T16:03:33.639Z,100423.25
2022-10-31T16:06:04.836Z,100409.41
2022-10-31T16:08:38.516Z,100406.75
2022-10-31T16:11:26.426Z,100404.78
2022-10-31T16:13:58.683Z,100400.78
2022-10-31T16:16:35.304Z,100397.28
2022-10-31T16:19:08.119Z,100398.50
2022-10-31T16:21:39.550Z,100395.34
2022-10-31T16:24:17.550Z,100396.81
2022-10-31T16:26:54.032Z,100391.69
2022-10-31T16:29:32.201Z,100387.81
2022-10-31T16:32:01.748Z,100388.31
2022-10-31T16:34:31.406Z,100393.16
2022-10-31T16:37:01.023Z,100383.69
2022-10-31T16:39:30.698Z,100387.19
2022-10-31T16:42:02.949Z,100388.19
2022-10-31T16:44:32.596Z,100376.66
2022-10-31T16:47:15.226Z,100372.50
2022-10-31T16:49:45.158Z,100376.53
2022-10-31T16:52:14.711Z,100380.66
2022-10-31T16:54:44.303Z,100380.53
2022-10-31T16:57:20.723Z,100373.75
2022-10-31T16:59:52.565Z,100376.53
2022-10-31T17:02:22.347Z,100363.81
2022-10-31T17:04:55.635Z,100363.19
2022-10-31T17:07:26.579Z,100365.00
2022-10-31T17:09:56.257Z,100364.75
2022-10-31T17:12:30.112Z,100369.50
2022-10-31T17:14:59.727Z,100360.28
2022-10-31T17:17:29.313Z,100369.63
2022-10-31T17:19:58.992Z,100356.88
2022-10-31T17:22:29.035Z,100357.84
2022-10-31T17:24:58.722Z,100363.31
2022-10-31T17:27:30.853Z,100364.88
2022-10-31T17:30:00.385Z,100374.00
2022-10-31T17:32:30.156Z,100371.19
2022-10-31T17:34:59.783Z,100362.81
2022-10-31T17:37:29.418Z,100369.00
2022-10-31T17:39:58.991Z,100357.47
2022-10-31T17:42:31.147Z,100366.25
2022-10-31T17:45:00.689Z,100362.59
2022-10-31T17:47:30.443Z,100353.59
2022-10-31T17:50:00.098Z,100361.97
2022-10-31T17:52:29.956Z,100362.81
2022-10-31T17:54:59.502Z,100361.00
2022-10-31T17:57:35.886Z,100369.75
2022-10-31T18:00:06.537Z,100365.38
2022-10-31T18:02:36.220Z,100359.06
2022-10-31T18:05:06.650Z,100359.91
2022-10-31T18:07:36.571Z,100357.25
2022-10-31T18:10:06.768Z,100354.81
2022-10-31T18:12:40.679Z,100359.19
2022-10-31T18:15:10.964Z,100356.66
2022-10-31T18:17:42.217Z,100362.72
2022-10-31T18:20:13.160Z,100359.44
2022-10-31T18:22:42.776Z,100355.31
2022-10-31T18:25:12.698Z,100355.19
2022-10-31T18:27:44.801Z,100358.94
2022-10-31T18:30:15.131Z,100352.41
2022-10-31T18:32:44.708Z,100357.72
2022-10-31T18:35:14.297Z,100363.31
2022-10-31T18:37:43.889Z,100357.88
2022-10-31T18:40:14.276Z,100353.38
2022-10-31T18:42:46.465Z,100349.09
2022-10-31T18:45:32.609Z,100355.69
2022-10-31T18:48:05.648Z,100358.56
2022-10-31T18:50:35.232Z,100357.13
2022-10-31T18:53:04.953Z,100349.38
2022-10-31T18:55:34.632Z,100348.47
2022-10-31T18:58:06.808Z,100343.91
2022-10-31T19:00:36.415Z,100344.25
2022-10-31T19:03:07.849Z,100340.59
2022-10-31T19:05:37.494Z,100330.91
2022-10-31T19:08:07.344Z,100332.25
2022-10-31T19:10:37.606Z,100325.81
2022-10-31T19:13:09.956Z,100321.78
2022-10-31T19:15:39.940Z,100321.91
2022-10-31T19:18:09.499Z,100312.91
2022-10-31T19:20:41.099Z,100311.00
2022-10-31T19:23:10.671Z,100313.91
2022-10-31T19:25:40.417Z,100317.19
2022-10-31T19:28:12.626Z,100310.72
2022-10-31T19:30:42.169Z,100304.66
2022-10-31T19:33:11.722Z,100311.81
2022-10-31T19:35:41.308Z,100291.81
2022-10-31T19:38:10.879Z,100289.25
2022-10-31T19:40:40.662Z,100294.84
2022-10-31T19:43:13.105Z,100304.53
2022-10-31T19:45:42.724Z,100299.94
2022-10-31T19:48:12.291Z,100292.06
2022-10-31T19:50:41.828Z,100283.81
2022-10-31T19:53:11.410Z,100295.44
2022-10-31T19:55:42.433Z,100287.31
2022-10-31T19:58:14.924Z,100291.81
2022-10-31T20:00:44.783Z,100282.22
2022-10-31T20:03:18.297Z,100284.78
2022-10-31T20:05:51.366Z,100280.28
2022-10-31T20:08:23.203Z,100275.56
2022-10-31T20:10:59.960Z,100281.50
2022-10-31T20:13:33.416Z,100276.31
2022-10-31T20:16:05.256Z,100278.72
2022-10-31T20:18:35.791Z,100277.03
2022-10-31T20:21:06.550Z,100279.47
2022-10-31T20:23:36.765Z,100271.22
2022-10-31T20:26:06.699Z,100267.81
2022-10-31T20:28:43.372Z,100267.81
2022-10-31T20:31:16.717Z,100263.63
2022-10-31T20:33:46.370Z,100260.09
2022-10-31T20:36:19.838Z,100257.06
2022-10-31T20:38:50.277Z,100250.66
2022-10-31T20:41:20.210Z,100255.09
2022-10-31T20:43:52.566Z,100243.38
2022-10-31T20:46:23.512Z,100242.13
2022-10-31T20:48:53.497Z,100233.16
2022-10-31T20:51:25.139Z,100226.88
2022-10-31T20:53:55.817Z,100227.34
2022-10-31T20:56:26.968Z,100231.69
2022-10-31T20:58:59.961Z,100230.84
2022-10-31T21:01:31.058Z,100230.00
2022-10-31T21:04:01.181Z,100224.66
2022-10-31T21:06:31.521Z,100220.16
2022-10-31T21:09:01.713Z,100226.63
2022-10-31T21:11:31.697Z,100230.25
2022-10-31T21:14:04.011Z,100216.78
2022-10-31T21:16:35.944Z,100214.84
2022-10-31T21:19:06.315Z,100211.94
2022-10-31T21:21:37.416Z,100216.44
2022-10-31T21:24:09.170Z,100212.91
2022-10-31T21:26:41.505Z,100211.19
2022-10-31T21:29:15.475Z,100215.59
2022-10-31T21:31:45.134Z,100204.28
2022-10-31T21:34:14.752Z,100198.09
2022-10-31T21:36:44.349Z,100204.16
2022-10-31T21:39:14.011Z,100215.09
2022-10-31T21:41:44.414Z,100195.56
2022-10-31T21:44:16.702Z,100194.47
2022-10-31T21:46:48.071Z,100189.25
2022-10-31T21:49:17.815Z,100187.56
2022-10-31T21:51:47.616Z,100183.06
2022-10-31T21:54:30.323Z,100174.34
2022-10-31T21:57:00.922Z,100177.72
2022-10-31T21:59:33.153Z,100167.44
2022-10-31T22:02:02.923Z,100180.91
2022-10-31T22:04:32.561Z,100164.16
2022-10-31T22:07:02.093Z,100174.22
2022-10-31T22:09:31.738Z,100169.00
2022-10-31T22:12:06.547Z,100164.66
2022-10-31T22:14:38.747Z,100161.00
2022-10-31T22:17:08.553Z,100164.66
2022-10-31T22:19:38.367Z,100160.16
2022-10-31T22:22:07.929Z,100159.31
2022-10-31T22:24:37.485Z,100151.06
2022-10-31T22:27:07.090Z,100149.03
2022-10-31T22:29:39.233Z,100158.97
2022-10-31T22:32:08.844Z,100148.53
2022-10-31T22:34:38.462Z,100139.78
2022-10-31T22:37:07.933Z,100134.19
2022-10-31T22:39:37.444Z,100127.94
2022-10-31T22:42:07.165Z,100127.66
2022-10-31T22:44:39.337Z,100128.50
2022-10-31T22:47:08.967Z,100126.94
2022-10-31T22:49:38.518Z,100123.44
2022-10-31T22:52:08.070Z,100122.59
2022-10-31T22:54:37.635Z,100128.63
2022-10-31T22:57:07.154Z,100121.75
2022-10-31T22:59:39.273Z,100118.69
2022-10-31T23:02:11.561Z,100118.47
2022-10-31T23:04:42.262Z,100128.28
2022-10-31T23:07:14.394Z,100118.31
2022-10-31T23:09:44.625Z,100111.91
2022-10-31T23:12:26.681Z,100118.22
2022-10-31T23:14:58.850Z,100112.91
2022-10-31T23:17:28.378Z,100111.06
2022-10-31T23:19:57.966Z,100116.88
2022-10-31T23:22:27.545Z,100115.44
2022-10-31T23:24:57.077Z,100121.84
2022-10-31T23:27:24.752Z,100128.88
2022-10-31T23:29:58.159Z,100127.03
2022-10-31T23:32:28.794Z,100127.88
2022-10-31T23:34:59.995Z,100125.63
2022-10-31T23:37:31.598Z,100129.50
2022-10-31T23:40:01.605Z,100130.81
2022-10-31T23:42:31.706Z,100129.84
2022-10-31T23:45:03.860Z,100128.28
2022-10-31T23:47:33.398Z,100125.72
2022-10-31T23:50:03.022Z,100121.97
2022-10-31T23:52:32.625Z,100129.00
2022-10-31T23:55:02.424Z,100121.63
2022-10-31T23:57:32.149Z,100122.81
